Time;durP1;ratioP1;P1;durP2;ratioP2;P2;SDS_P1;SDS_P2;PMS_P1;PMS_P2;Temp;Humidity;BMP_temperature;BMP_pressure;BME280_temperature;BME280_humidity;BME280_pressure;Samples;Min_cycle;Max_cycle;Signal;HPM_P1;HPM_P2
2022/03/01 00:00:15;;;;;;;13.77;12.33;;;0.20;1.00;;;;;;6304819;28;20780;-57
2022/03/01 00:03:18;;;;;;;12.70;11.50;;;0.10;1.00;;;;;;6309479;28;20346;-56
2022/03/01 00:06:21;;;;;;;13.77;12.37;;;0.00;1.00;;;;;;6310103;28;20238;-56
2022/03/01 00:09:24;;;;;;;13.53;12.23;;;0.00;1.00;;;;;;6308517;28;20370;-55
2022/03/01 00:12:28;;;;;;;15.87;12.57;;;0.20;1.00;;;;;;6310330;28;20721;-56
2022/03/01 00:15:31;;;;;;;14.13;12.73;;;0.40;1.00;;;;;;6310112;28;20366;-57
2022/03/01 00:18:34;;;;;;;13.33;11.93;;;0.30;1.00;;;;;;6286576;28;20236;-55
2022/03/01 00:21:42;;;;;;;13.90;12.43;;;0.20;1.00;;;;;;6283330;28;20530;-55
2022/03/01 00:24:45;;;;;;;14.97;12.57;;;0.10;1.00;;;;;;6299049;28;20294;-55
2022/03/01 00:27:49;;;;;;;14.43;12.33;;;0.10;1.00;;;;;;6295115;28;20272;-56
2022/03/01 00:30:51;;;;;;;15.77;12.60;;;0.10;1.00;;;;;;6295640;28;20281;-57
2022/03/01 00:33:54;;;;;;;14.97;12.57;;;0.00;1.00;;;;;;6307326;28;20264;-56
2022/03/01 00:36:57;;;;;;;14.13;12.80;;;-0.10;1.00;;;;;;6307785;28;20317;-57
2022/03/01 00:40:00;;;;;;;15.07;12.80;;;-0.10;1.00;;;;;;6309820;28;20307;-56
2022/03/01 00:43:04;;;;;;;16.70;13.50;;;0.00;1.00;;;;;;6306200;28;20580;-55
2022/03/01 00:46:07;;;;;;;14.47;12.97;;;-0.10;1.00;;;;;;6283313;28;20233;-55
2022/03/01 00:49:10;;;;;;;13.47;11.97;;;0.00;1.00;;;;;;6288481;28;20276;-56
2022/03/01 00:52:13;;;;;;;18.43;13.30;;;0.20;1.00;;;;;;6287694;28;20321;-56
2022/03/01 00:55:16;;;;;;;15.43;12.87;;;-0.10;1.00;;;;;;6289864;28;20310;-56
2022/03/01 00:58:20;;;;;;;15.07;12.37;;;-0.20;1.00;;;;;;6288912;28;20718;-56
2022/03/01 01:01:22;;;;;;;14.10;12.50;;;0.00;1.00;;;;;;6306703;28;20717;-57
2022/03/01 01:04:25;;;;;;;14.20;11.97;;;-0.20;1.00;;;;;;6313475;28;20386;-55
2022/03/01 01:07:28;;;;;;;14.93;12.57;;;0.00;1.00;;;;;;6313774;28;20325;-55
2022/03/01 01:10:31;;;;;;;17.23;13.53;;;0.00;1.00;;;;;;6295919;28;20698;-57
2022/03/01 01:13:35;;;;;;;14.90;13.30;;;-0.10;1.00;;;;;;6301175;28;20251;-55
2022/03/01 01:16:38;;;;;;;12.97;11.77;;;0.00;1.00;;;;;;6313466;28;20237;-55
2022/03/01 01:19:41;;;;;;;14.23;12.70;;;-0.10;1.00;;;;;;6300006;28;20828;-56
2022/03/01 01:22:46;;;;;;;13.33;12.00;;;0.00;1.00;;;;;;6288638;28;20240;-57
2022/03/01 01:25:49;;;;;;;15.70;12.87;;;0.00;1.00;;;;;;6288992;28;20237;-56
2022/03/01 01:28:53;;;;;;;15.80;13.30;;;-0.10;1.00;;;;;;6293936;28;20239;-56
2022/03/01 01:31:56;;;;;;;17.67;13.27;;;-0.20;1.00;;;;;;6312405;28;20239;-56
2022/03/01 01:34:59;;;;;;;13.63;12.23;;;-0.20;1.00;;;;;;6312147;28;20417;-55
2022/03/01 01:38:01;;;;;;;17.77;12.83;;;-0.20;1.00;;;;;;6299050;28;20241;-57
2022/03/01 01:41:04;;;;;;;17.27;12.30;;;-0.20;1.00;;;;;;6288073;28;20706;-55
2022/03/01 01:44:09;;;;;;;14.40;12.97;;;-0.40;1.00;;;;;;6287759;28;20346;-57
2022/03/01 01:47:11;;;;;;;14.37;12.87;;;-0.30;1.00;;;;;;6286418;28;20240;-56
2022/03/01 01:50:15;;;;;;;13.97;12.33;;;-0.40;1.00;;;;;;6288942;28;20378;-56
2022/03/01 01:53:19;;;;;;;13.70;11.63;;;-0.40;1.00;;;;;;6309788;28;20315;-56
2022/03/01 01:56:22;;;;;;;14.13;12.67;;;-0.50;1.00;;;;;;6293045;28;20232;-56
2022/03/01 01:59:26;;;;;;;14.30;12.90;;;-0.20;1.00;;;;;;6286333;28;20266;-56
2022/03/01 02:02:29;;;;;;;15.83;12.80;;;-0.50;1.00;;;;;;6280825;28;20764;-56
2022/03/01 02:05:32;;;;;;;13.30;11.97;;;-0.20;1.00;;;;;;6279727;28;20237;-56
2022/03/01 02:08:35;;;;;;;15.33;12.13;;;-0.40;1.00;;;;;;6286054;28;20727;-57
2022/03/01 02:11:38;;;;;;;15.70;11.73;;;-0.30;1.00;;;;;;6286157;28;20374;-57
2022/03/01 02:14:42;;;;;;;15.77;12.70;;;-0.60;1.00;;;;;;6267873;28;20246;-57
2022/03/01 02:17:45;;;;;;;13.30;11.90;;;-0.40;1.00;;;;;;6260442;28;20301;-55
2022/03/01 02:20:50;;;;;;;13.10;11.87;;;-0.40;1.00;;;;;;6260747;28;20695;-56
2022/03/01 02:23:53;;;;;;;12.33;11.23;;;-0.50;1.00;;;;;;6261390;28;20364;-57
2022/03/01 02:26:56;;;;;;;14.37;11.93;;;-0.40;1.00;;;;;;6261960;28;20311;-56
2022/03/01 02:29:59;;;;;;;13.57;12.13;;;-0.40;1.00;;;;;;6270098;28;20323;-56
2022/03/01 02:33:02;;;;;;;14.23;12.00;;;-0.50;1.00;;;;;;6287056;28;20233;-55
2022/03/01 02:36:09;;;;;;;15.43;11.93;;;-0.70;1.00;;;;;;6279868;28;20241;-56
2022/03/01 02:39:12;;;;;;;13.23;11.50;;;-0.50;1.00;;;;;;6285775;28;20221;-56
2022/03/01 02:42:15;;;;;;;12.70;11.40;;;-0.50;1.00;;;;;;6286595;28;20241;-55
2022/03/01 02:45:19;;;;;;;15.63;12.37;;;-0.50;1.00;;;;;;6269912;28;20424;-57
2022/03/01 02:48:22;;;;;;;14.17;12.23;;;-0.50;1.00;;;;;;6261289;28;20233;-56
2022/03/01 02:51:27;;;;;;;11.87;10.60;;;-0.90;1.00;;;;;;6260546;28;20627;-56
2022/03/01 02:54:31;;;;;;;12.53;11.23;;;-0.80;1.00;;;;;;6260304;28;20241;-57
2022/03/01 02:57:34;;;;;;;12.90;11.50;;;-0.60;1.00;;;;;;6261868;28;20438;-55
2022/03/01 03:00:38;;;;;;;11.93;10.70;;;-0.70;1.00;;;;;;6267097;28;20539;-56
2022/03/01 03:03:41;;;;;;;15.30;12.40;;;-0.80;1.00;;;;;;6271328;28;20255;-57
2022/03/01 03:06:45;;;;;;;13.07;11.70;;;-0.70;1.00;;;;;;6286407;28;20240;-56
2022/03/01 03:09:48;;;;;;;16.90;12.17;;;-0.80;1.00;;;;;;6278902;28;20229;-56
2022/03/01 03:12:50;;;;;;;12.83;11.50;;;-0.70;1.00;;;;;;6286570;28;20232;-57
2022/03/01 03:15:53;;;;;;;15.40;11.80;;;-0.90;1.00;;;;;;6285897;28;20237;-55
2022/03/01 03:18:56;;;;;;;14.00;12.03;;;-0.70;1.00;;;;;;6285644;28;20776;-57
2022/03/01 03:22:02;;;;;;;13.43;10.80;;;-0.90;1.00;;;;;;6266873;28;20316;-57
2022/03/01 03:25:06;;;;;;;13.53;11.87;;;-0.80;1.00;;;;;;6261148;28;20238;-56
2022/03/01 03:28:09;;;;;;;15.50;12.10;;;-0.80;1.00;;;;;;6261895;28;20316;-57
2022/03/01 03:31:13;;;;;;;19.07;12.07;;;-0.90;1.00;;;;;;6280318;28;20240;-56
2022/03/01 03:34:16;;;;;;;14.93;11.87;;;-0.70;1.00;;;;;;6285518;28;20237;-56
2022/03/01 03:37:21;;;;;;;13.37;12.03;;;-0.90;1.00;;;;;;6285962;28;20233;-56
2022/03/01 03:40:25;;;;;;;13.93;12.10;;;-0.90;1.00;;;;;;6272361;28;20440;-56
2022/03/01 03:43:28;;;;;;;15.07;12.13;;;-0.90;1.00;;;;;;6282820;28;20343;-55
2022/03/01 03:46:31;;;;;;;16.07;11.90;;;-1.10;1.00;;;;;;6283150;28;20252;-55
2022/03/01 03:49:34;;;;;;;16.33;12.70;;;-0.90;1.00;;;;;;6278895;28;20245;-57
2022/03/01 03:52:43;;;;;;;15.20;12.00;;;-1.00;1.00;;;;;;6257815;28;20784;-56
2022/03/01 03:55:46;;;;;;;15.47;12.50;;;-0.90;1.00;;;;;;6282152;28;20312;-55
2022/03/01 03:58:49;;;;;;;13.57;12.07;;;-0.80;1.00;;;;;;6283220;28;20463;-55
2022/03/01 04:01:53;;;;;;;16.90;12.90;;;-1.00;1.00;;;;;;6275459;28;20235;-56
2022/03/01 04:04:56;;;;;;;14.37;11.87;;;-0.80;1.00;;;;;;6283633;28;20265;-55
2022/03/01 04:08:00;;;;;;;14.97;12.53;;;-1.00;1.00;;;;;;6283090;28;20308;-57
2022/03/01 04:11:03;;;;;;;16.87;12.77;;;-0.90;1.00;;;;;;6283447;28;20237;-57
2022/03/01 04:14:06;;;;;;;17.50;13.20;;;-0.80;1.00;;;;;;6266424;28;20312;-55
2022/03/01 04:17:09;;;;;;;15.03;12.43;;;-0.90;1.00;;;;;;6282828;28;20228;-55
2022/03/01 04:20:14;;;;;;;17.60;13.70;;;-0.90;1.00;;;;;;6279818;28;20414;-57
2022/03/01 04:23:18;;;;;;;15.80;13.57;;;-1.00;1.00;;;;;;6284506;28;20379;-55
2022/03/01 04:26:23;;;;;;;16.00;13.17;;;-0.90;1.00;;;;;;6288545;28;20308;-57
2022/03/01 04:29:25;;;;;;;15.87;12.60;;;-1.00;1.00;;;;;;6285439;28;20283;-57
2022/03/01 04:32:28;;;;;;;18.20;13.10;;;-0.90;1.00;;;;;;6273271;28;20241;-55
2022/03/01 04:35:31;;;;;;;17.63;13.47;;;-0.90;1.00;;;;;;6292532;28;20237;-57
2022/03/01 04:38:37;;;;;;;15.10;12.47;;;-0.90;1.00;;;;;;6285797;28;20233;-57
2022/03/01 04:41:39;;;;;;;13.53;12.13;;;-1.20;1.00;;;;;;6286972;28;20720;-56
2022/03/01 04:44:44;;;;;;;17.17;12.47;;;-0.90;1.00;;;;;;6288126;28;20275;-55
2022/03/01 04:47:47;;;;;;;20.27;12.93;;;-1.00;1.00;;;;;;6288214;28;20253;-56
2022/03/01 04:50:50;;;;;;;16.30;12.83;;;-0.90;1.00;;;;;;6281852;28;20359;-56
2022/03/01 04:53:54;;;;;;;17.00;12.37;;;-0.90;1.00;;;;;;6285422;28;20702;-57
2022/03/01 04:56:57;;;;;;;15.53;12.50;;;-0.90;1.00;;;;;;6284836;28;20359;-56
2022/03/01 05:00:01;;;;;;;13.77;12.30;;;-0.90;1.00;;;;;;6288494;28;20872;-55
2022/03/01 05:03:05;;;;;;;20.80;13.00;;;-1.10;1.00;;;;;;6281431;28;20236;-56
2022/03/01 05:06:08;;;;;;;16.37;12.13;;;-0.90;1.00;;;;;;6282040;28;20818;-55
2022/03/01 05:09:13;;;;;;;16.53;12.33;;;-0.90;1.00;;;;;;6285638;28;20233;-57
2022/03/01 05:12:17;;;;;;;14.50;12.40;;;-1.30;1.00;;;;;;6282007;28;20242;-57
2022/03/01 05:15:21;;;;;;;15.33;12.37;;;-0.90;1.00;;;;;;6279760;28;20516;-56
2022/03/01 05:18:24;;;;;;;16.00;12.53;;;-1.00;1.00;;;;;;6281038;28;20743;-56
2022/03/01 05:21:26;;;;;;;16.47;12.87;;;-0.90;1.00;;;;;;6283511;28;20240;-55
2022/03/01 05:24:30;;;;;;;15.73;12.90;;;-1.00;1.00;;;;;;6279301;28;20316;-56
2022/03/01 05:27:33;;;;;;;16.23;11.60;;;-1.00;1.00;;;;;;6282958;28;20257;-57
2022/03/01 05:30:36;;;;;;;16.03;12.07;;;-1.00;1.00;;;;;;6283370;28;20326;-56
2022/03/01 05:33:39;;;;;;;18.30;13.53;;;-0.90;1.00;;;;;;6276965;28;20328;-55
2022/03/01 05:36:42;;;;;;;14.27;12.47;;;-0.90;1.00;;;;;;6276114;28;20533;-55
2022/03/01 05:39:46;;;;;;;16.57;12.13;;;-1.00;1.00;;;;;;6275049;28;20328;-55
2022/03/01 05:42:50;;;;;;;16.30;12.80;;;-1.00;1.00;;;;;;6282854;28;20308;-56
2022/03/01 05:45:53;;;;;;;14.97;13.00;;;-0.90;1.00;;;;;;6284444;28;20324;-57
2022/03/01 05:48:56;;;;;;;14.17;12.67;;;-1.00;1.00;;;;;;6286409;28;20233;-55
2022/03/01 05:51:58;;;;;;;12.10;10.80;;;-1.00;1.00;;;;;;6282735;28;20700;-56
2022/03/01 05:55:04;;;;;;;23.63;12.17;;;-0.90;1.00;;;;;;6281566;28;20387;-59
2022/03/01 05:58:06;;;;;;;14.83;12.53;;;-1.10;1.00;;;;;;6283197;28;20225;-57
2022/03/01 06:01:09;;;;;;;15.17;12.60;;;-1.20;1.00;;;;;;6282400;28;20272;-57
2022/03/01 06:04:12;;;;;;;17.73;12.53;;;-1.00;1.00;;;;;;6281363;28;20243;-57
2022/03/01 06:07:15;;;;;;;19.73;13.10;;;-0.90;1.00;;;;;;6282407;28;20302;-55
2022/03/01 06:10:19;;;;;;;18.20;13.70;;;-0.90;1.00;;;;;;6270244;28;20776;-55
2022/03/01 06:13:22;;;;;;;15.87;12.13;;;-0.90;1.00;;;;;;6288930;28;20345;-56
2022/03/01 06:16:25;;;;;;;20.30;12.63;;;-1.00;1.00;;;;;;6287495;28;20789;-56
2022/03/01 06:19:28;;;;;;;19.37;12.87;;;-1.00;1.00;;;;;;6246515;28;1021781;-56
2022/03/01 06:22:31;;;;;;;16.53;12.37;;;-1.10;1.00;;;;;;6284195;28;20242;-57
2022/03/01 06:25:35;;;;;;;17.27;13.03;;;-0.80;1.00;;;;;;6280822;28;20292;-56
2022/03/01 06:28:38;;;;;;;14.63;12.67;;;-0.80;1.00;;;;;;6279138;28;20383;-57
2022/03/01 06:31:41;;;;;;;14.93;12.37;;;-0.70;1.00;;;;;;6275986;28;20229;-56
2022/03/01 06:34:45;;;;;;;20.03;12.73;;;-0.70;1.00;;;;;;6275455;28;20233;-60
2022/03/01 06:38:06;;;;;;;17.47;13.00;;;-0.70;1.00;;;;;;6279008;28;20252;-59
2022/03/01 06:41:10;;;;;;;16.43;12.03;;;-0.60;1.00;;;;;;6279656;28;20238;-55
2022/03/01 06:44:13;;;;;;;16.03;12.93;;;-0.70;1.00;;;;;;6281598;28;20484;-58
2022/03/01 06:47:18;;;;;;;17.27;12.67;;;-0.70;1.00;;;;;;6277761;28;20367;-56
2022/03/01 06:50:21;;;;;;;20.00;13.13;;;-0.70;1.00;;;;;;6306347;28;20308;-57
2022/03/01 06:53:23;;;;;;;19.20;12.93;;;-0.30;1.00;;;;;;6294543;28;20312;-58
2022/03/01 06:56:28;;;;;;;16.77;13.40;;;-0.20;1.00;;;;;;6276234;28;20230;-59
2022/03/01 06:59:31;;;;;;;18.87;12.93;;;-0.20;1.00;;;;;;6284566;28;20363;-55
2022/03/01 07:02:38;;;;;;;14.80;13.20;;;-0.10;1.00;;;;;;6282038;28;20320;-56
2022/03/01 07:05:41;;;;;;;19.17;12.23;;;-0.10;1.00;;;;;;6278209;28;20723;-56
2022/03/01 07:08:44;;;;;;;20.87;12.93;;;0.50;1.00;;;;;;6280234;28;20237;-56
2022/03/01 07:11:48;;;;;;;18.63;13.10;;;0.30;1.00;;;;;;6283866;28;20387;-55
2022/03/01 07:14:52;;;;;;;17.13;12.97;;;0.00;1.00;;;;;;6279588;28;20500;-56
2022/03/01 07:17:55;;;;;;;14.83;11.77;;;-0.10;1.00;;;;;;6279905;28;20371;-55
2022/03/01 07:20:58;;;;;;;14.27;12.40;;;0.50;1.00;;;;;;6283012;28;20551;-57
2022/03/01 07:24:02;;;;;;;15.43;11.73;;;0.50;1.00;;;;;;6280429;28;20236;-56
2022/03/01 07:27:06;;;;;;;15.33;12.20;;;0.30;1.00;;;;;;6277294;28;20248;-56
2022/03/01 07:30:11;;;;;;;15.10;11.57;;;0.40;1.00;;;;;;6280316;28;20244;-55
2022/03/01 07:33:14;;;;;;;13.13;11.53;;;0.40;1.00;;;;;;6281370;28;20314;-55
2022/03/01 07:36:17;;;;;;;14.60;12.17;;;0.40;1.00;;;;;;6282882;28;20255;-56
2022/03/01 07:39:20;;;;;;;17.17;11.67;;;0.50;1.00;;;;;;6279597;28;20494;-56
2022/03/01 07:42:25;;;;;;;14.57;11.67;;;0.40;1.00;;;;;;6281415;28;20471;-57
2022/03/01 07:45:27;;;;;;;11.50;10.33;;;0.60;1.00;;;;;;6277685;28;20436;-55
2022/03/01 07:48:30;;;;;;;15.40;12.00;;;0.90;1.00;;;;;;6282030;28;20287;-57
2022/03/01 07:51:33;;;;;;;19.70;12.03;;;0.90;1.00;;;;;;6282522;28;20559;-55
2022/03/01 07:54:36;;;;;;;15.20;11.13;;;1.30;1.00;;;;;;6280251;28;20617;-55
2022/03/01 07:57:40;;;;;;;14.23;11.63;;;1.40;1.00;;;;;;6281770;28;20625;-56
2022/03/01 08:00:43;;;;;;;15.60;11.03;;;1.40;1.00;;;;;;6276583;28;20316;-56
2022/03/01 08:03:46;;;;;;;11.47;10.37;;;1.50;1.00;;;;;;6281768;28;20280;-55
2022/03/01 08:06:49;;;;;;;13.40;11.00;;;1.70;1.00;;;;;;6278687;28;20462;-56
2022/03/01 08:09:52;;;;;;;12.37;10.10;;;1.50;1.00;;;;;;6277702;28;20316;-56
2022/03/01 08:12:57;;;;;;;13.27;10.90;;;1.80;1.00;;;;;;6280512;28;20279;-56
2022/03/01 08:16:00;;;;;;;11.03;10.03;;;1.80;1.00;;;;;;6279603;28;20419;-56
2022/03/01 08:19:03;;;;;;;17.00;10.47;;;1.90;1.00;;;;;;6280623;28;20298;-55
2022/03/01 08:22:06;;;;;;;16.33;11.83;;;1.90;1.00;;;;;;6281823;28;20237;-56
2022/03/01 08:25:10;;;;;;;15.63;10.80;;;1.90;1.00;;;;;;6280452;28;20257;-56
2022/03/01 08:28:14;;;;;;;14.17;10.83;;;2.10;1.00;;;;;;6281712;28;20302;-57
2022/03/01 08:31:17;;;;;;;14.10;11.10;;;2.30;1.00;;;;;;6279108;28;20255;-56
2022/03/01 08:34:20;;;;;;;10.80;9.70;;;2.10;1.00;;;;;;6278175;28;20717;-55
2022/03/01 08:37:23;;;;;;;10.70;9.70;;;2.30;1.00;;;;;;6280245;28;20240;-56
2022/03/01 08:40:26;;;;;;;10.70;9.70;;;2.50;1.00;;;;;;6276201;28;20233;-56
2022/03/01 08:43:30;;;;;;;11.63;10.53;;;2.40;1.00;;;;;;6281129;28;20262;-56
2022/03/01 08:46:34;;;;;;;12.07;10.40;;;2.70;1.00;;;;;;6276044;28;20242;-56
2022/03/01 08:49:37;;;;;;;10.60;9.33;;;2.80;1.00;;;;;;6280506;28;20237;-57
2022/03/01 08:52:43;;;;;;;11.17;9.93;;;2.90;1.00;;;;;;6270271;28;20233;-56
2022/03/01 08:55:46;;;;;;;11.03;10.03;;;2.80;1.00;;;;;;6288276;28;20293;-55
2022/03/01 08:58:50;;;;;;;14.40;9.77;;;3.00;1.00;;;;;;6305074;28;20316;-57
2022/03/01 09:01:53;;;;;;;12.27;10.53;;;3.10;1.00;;;;;;6305953;28;20233;-56
2022/03/01 09:04:56;;;;;;;10.87;9.80;;;3.50;1.00;;;;;;6278934;28;20241;-57
2022/03/01 09:07:59;;;;;;;11.23;10.03;;;3.50;1.00;;;;;;6266937;28;20226;-56
2022/03/01 09:11:03;;;;;;;12.30;10.27;;;3.60;1.00;;;;;;6285167;28;20229;-56
2022/03/01 09:14:07;;;;;;;11.37;10.17;;;3.70;1.00;;;;;;6280189;28;20265;-56
2022/03/01 09:17:10;;;;;;;13.53;9.97;;;3.80;1.00;;;;;;6284740;28;20311;-57
2022/03/01 09:20:13;;;;;;;11.10;10.00;;;3.90;1.00;;;;;;6283192;28;20932;-58
2022/03/01 09:23:17;;;;;;;11.70;10.40;;;3.90;1.00;;;;;;6283602;28;20367;-57
2022/03/01 09:26:19;;;;;;;10.47;9.47;;;3.90;1.00;;;;;;6285603;28;20290;-56
2022/03/01 09:29:24;;;;;;;13.40;10.97;;;4.00;1.00;;;;;;6286554;28;20267;-56
2022/03/01 09:32:26;;;;;;;10.70;9.60;;;3.70;1.00;;;;;;6282872;28;20225;-57
2022/03/01 09:35:30;;;;;;;11.07;9.97;;;4.00;1.00;;;;;;6276921;28;21091;-57
2022/03/01 09:38:32;;;;;;;10.93;9.87;;;4.30;1.00;;;;;;6281826;28;20379;-57
2022/03/01 09:41:37;;;;;;;10.00;9.00;;;4.30;1.00;;;;;;6283490;28;20487;-57
2022/03/01 09:44:42;;;;;;;11.93;10.13;;;4.50;1.00;;;;;;6281500;28;20494;-57
2022/03/01 09:47:45;;;;;;;14.23;11.60;;;4.60;1.00;;;;;;6284322;28;20246;-58
2022/03/01 09:50:49;;;;;;;11.33;10.17;;;4.50;1.00;;;;;;6285044;28;20585;-57
2022/03/01 09:53:53;;;;;;;12.50;10.67;;;4.80;1.00;;;;;;6279103;28;20268;-56
2022/03/01 09:56:55;;;;;;;12.00;10.63;;;4.80;1.00;;;;;;6284379;28;20462;-57
2022/03/01 10:00:00;;;;;;;13.27;11.80;;;4.70;1.00;;;;;;6283808;28;20233;-59
2022/03/01 10:03:03;;;;;;;10.70;9.60;;;4.80;1.00;;;;;;6279108;28;20589;-56
2022/03/01 10:06:07;;;;;;;15.93;11.00;;;5.30;1.00;;;;;;6282784;28;20229;-56
2022/03/01 10:09:15;;;;;;;11.30;10.20;;;5.30;1.00;;;;;;6275876;28;20230;-57
2022/03/01 10:12:24;;;;;;;14.27;9.97;;;5.60;1.00;;;;;;6281277;28;20226;-57
2022/03/01 10:15:31;;;;;;;12.87;10.00;;;5.60;1.00;;;;;;6283019;28;20244;-59
2022/03/01 10:18:36;;;;;;;15.53;9.97;;;5.90;1.00;;;;;;6283365;28;20324;-58
2022/03/01 10:21:39;;;;;;;11.40;10.27;;;5.90;1.00;;;;;;6275187;28;20229;-57
2022/03/01 10:24:48;;;;;;;10.83;9.17;;;5.90;1.00;;;;;;6279537;28;20348;-56
2022/03/01 10:27:52;;;;;;;12.33;9.73;;;6.00;1.00;;;;;;6286722;28;20885;-57
2022/03/01 10:30:56;;;;;;;11.10;10.00;;;6.10;1.00;;;;;;6281862;28;20609;-56
2022/03/01 10:34:01;;;;;;;11.07;10.00;;;6.30;1.00;;;;;;6280215;28;20225;-57
2022/03/01 10:37:04;;;;;;;13.20;10.83;;;6.20;1.00;;;;;;6277515;28;20724;-57
2022/03/01 10:40:19;;;;;;;10.80;9.60;;;6.80;1.00;;;;;;6281547;28;20853;-57
2022/03/01 10:43:26;;;;;;;10.67;9.67;;;6.50;1.00;;;;;;6282876;28;20316;-56
2022/03/01 10:46:37;;;;;;;10.97;9.97;;;6.70;1.00;;;;;;6277519;28;20562;-56
2022/03/01 10:49:40;;;;;;;10.17;9.23;;;6.40;1.00;;;;;;6276213;28;20242;-56
2022/03/01 10:52:47;;;;;;;13.50;9.40;;;6.70;1.00;;;;;;6280125;28;20237;-58
2022/03/01 10:55:50;;;;;;;10.33;9.33;;;6.70;1.00;;;;;;6281671;28;20299;-58
2022/03/01 10:58:56;;;;;;;10.97;9.83;;;6.80;1.00;;;;;;6282644;28;20233;-57
2022/03/01 11:02:00;;;;;;;9.47;8.67;;;6.90;1.00;;;;;;6281203;28;20579;-57
2022/03/01 11:05:04;;;;;;;9.60;8.80;;;6.90;1.00;;;;;;6288326;28;20650;-58
2022/03/01 11:08:08;;;;;;;11.13;10.03;;;7.10;1.00;;;;;;6282745;28;20399;-57
2022/03/01 11:11:12;;;;;;;9.47;8.67;;;7.30;1.00;;;;;;6280896;28;20475;-58
2022/03/01 11:14:19;;;;;;;10.17;9.17;;;7.30;1.00;;;;;;6281706;28;20299;-57
2022/03/01 11:17:33;;;;;;;10.07;9.03;;;7.50;1.00;;;;;;6282204;28;20486;-57
2022/03/01 11:20:41;;;;;;;9.70;8.80;;;7.40;1.00;;;;;;6282726;28;20641;-57
2022/03/01 11:23:44;;;;;;;9.60;8.63;;;7.50;1.00;;;;;;6283601;28;20242;-57
2022/03/01 11:26:48;;;;;;;9.63;9.00;;;7.50;1.00;;;;;;6283047;28;20940;-57
2022/03/01 11:29:52;;;;;;;9.37;8.57;;;7.50;1.00;;;;;;6280122;28;20359;-57
2022/03/01 11:32:58;;;;;;;10.17;8.83;;;7.50;1.00;;;;;;6277062;28;20252;-57
2022/03/01 11:36:04;;;;;;;9.90;9.03;;;7.50;1.00;;;;;;6279842;28;20658;-57
2022/03/01 11:39:12;;;;;;;10.63;8.37;;;7.50;1.00;;;;;;6283235;28;20705;-56
2022/03/01 11:42:20;;;;;;;10.37;9.27;;;7.50;1.00;;;;;;6303007;28;20836;-57
2022/03/01 11:45:33;;;;;;;8.43;7.73;;;7.80;1.00;;;;;;6300742;28;20316;-57
2022/03/01 11:48:46;;;;;;;8.67;7.97;;;7.70;1.00;;;;;;6294717;28;20233;-57
2022/03/01 11:51:51;;;;;;;9.43;7.87;;;7.50;1.00;;;;;;6269108;28;20240;-56
2022/03/01 11:54:57;;;;;;;9.00;7.93;;;7.60;1.00;;;;;;6281758;28;20237;-62
2022/03/01 11:57:59;;;;;;;7.93;7.33;;;7.60;1.00;;;;;;6283204;28;20714;-57
2022/03/01 12:01:05;;;;;;;9.57;8.67;;;7.60;1.00;;;;;;6272682;28;20229;-57
2022/03/01 12:04:10;;;;;;;8.77;7.97;;;7.90;1.00;;;;;;6281247;28;20796;-57
2022/03/01 12:07:18;;;;;;;8.73;7.80;;;7.90;1.00;;;;;;6273241;28;20233;-56
2022/03/01 12:10:23;;;;;;;8.43;7.70;;;7.80;1.00;;;;;;6278863;28;20371;-56
2022/03/01 12:13:36;;;;;;;9.23;8.50;;;8.00;1.00;;;;;;6280938;28;20328;-57
2022/03/01 12:16:40;;;;;;;8.57;7.40;;;8.20;1.00;;;;;;6298090;28;20244;-56
2022/03/01 12:19:44;;;;;;;7.77;7.17;;;8.20;1.00;;;;;;6303654;28;20232;-57
2022/03/01 12:22:52;;;;;;;8.47;7.67;;;8.20;1.00;;;;;;6299584;28;20237;-57
2022/03/01 12:25:54;;;;;;;8.23;7.63;;;8.20;1.00;;;;;;6306186;28;20240;-58
2022/03/01 12:28:59;;;;;;;7.80;7.10;;;8.30;1.00;;;;;;6295816;28;20244;-57
2022/03/01 12:32:05;;;;;;;8.43;7.63;;;8.20;1.00;;;;;;6274287;28;20229;-56
2022/03/01 12:35:09;;;;;;;9.40;7.80;;;8.10;1.00;;;;;;6274456;28;20331;-57
2022/03/01 12:38:14;;;;;;;8.67;7.83;;;8.10;1.00;;;;;;6281826;28;20236;-57
2022/03/01 12:41:17;;;;;;;8.30;7.53;;;8.10;1.00;;;;;;6282663;28;20317;-57
2022/03/01 12:44:22;;;;;;;9.03;8.07;;;8.30;1.00;;;;;;6281611;28;20776;-56
2022/03/01 12:47:25;;;;;;;7.50;6.80;;;8.50;1.00;;;;;;6285648;28;20237;-57
2022/03/01 12:50:29;;;;;;;7.50;6.80;;;8.60;1.00;;;;;;6285126;28;20233;-58
2022/03/01 12:53:32;;;;;;;7.97;7.17;;;8.70;1.00;;;;;;6285151;28;20240;-57
2022/03/01 12:56:36;;;;;;;7.73;7.07;;;8.80;1.00;;;;;;6278940;28;20391;-56
2022/03/01 12:59:39;;;;;;;8.23;7.50;;;8.70;1.00;;;;;;6284284;28;20828;-57
2022/03/01 13:02:52;;;;;;;7.27;6.67;;;8.60;1.00;;;;;;6288209;28;20226;-57
2022/03/01 13:06:07;;;;;;;8.20;7.40;;;8.50;1.00;;;;;;6275468;28;20786;-57
2022/03/01 13:09:10;;;;;;;8.77;8.00;;;8.30;1.00;;;;;;6281739;28;20536;-57
2022/03/01 13:12:13;;;;;;;8.23;7.63;;;8.40;1.00;;;;;;6294974;28;20390;-56
2022/03/01 13:15:22;;;;;;;7.73;7.13;;;8.50;1.00;;;;;;6281364;28;20726;-57
2022/03/01 13:18:27;;;;;;;7.87;7.40;;;8.60;1.00;;;;;;6285109;28;20320;-57
2022/03/01 13:21:32;;;;;;;7.57;7.07;;;8.70;1.00;;;;;;6278943;28;20261;-56
2022/03/01 13:24:36;;;;;;;7.30;6.70;;;8.60;1.00;;;;;;6285676;28;20287;-56
2022/03/01 13:27:49;;;;;;;7.40;6.90;;;8.50;1.00;;;;;;6283383;28;20503;-57
2022/03/01 13:30:51;;;;;;;7.73;7.23;;;8.40;1.00;;;;;;6281154;28;20237;-56
2022/03/01 13:33:56;;;;;;;7.60;6.97;;;8.50;1.00;;;;;;6282932;28;20237;-60
2022/03/01 13:37:01;;;;;;;7.40;6.80;;;8.50;1.00;;;;;;6309154;28;20313;-62
2022/03/01 13:40:05;;;;;;;8.57;7.73;;;8.70;1.00;;;;;;6283399;28;20232;-57
2022/03/01 13:43:10;;;;;;;7.73;7.23;;;8.60;1.00;;;;;;6278698;28;20603;-58
2022/03/01 13:46:17;;;;;;;7.23;6.73;;;8.60;1.00;;;;;;6278580;28;20362;-56
2022/03/01 13:49:30;;;;;;;7.70;7.10;;;8.80;1.00;;;;;;6283382;28;20839;-57
2022/03/01 13:52:38;;;;;;;8.20;7.40;;;8.80;1.00;;;;;;6284661;28;20322;-57
2022/03/01 13:55:42;;;;;;;7.97;7.37;;;8.80;1.00;;;;;;6280674;28;20250;-56
2022/03/01 13:58:44;;;;;;;7.90;7.17;;;8.80;1.00;;;;;;6283226;28;20319;-58
2022/03/01 14:01:48;;;;;;;7.30;6.70;;;8.80;1.00;;;;;;6307646;28;20309;-56
2022/03/01 14:04:58;;;;;;;6.90;6.40;;;8.80;1.00;;;;;;6284390;28;20234;-57
2022/03/01 14:08:04;;;;;;;7.20;6.60;;;8.70;1.00;;;;;;6282499;28;20371;-57
2022/03/01 14:11:12;;;;;;;8.23;7.43;;;8.80;1.00;;;;;;6283499;28;20946;-57
2022/03/01 14:14:16;;;;;;;9.77;7.67;;;8.90;1.00;;;;;;6282242;28;20328;-58
2022/03/01 14:17:22;;;;;;;7.23;6.73;;;8.80;1.00;;;;;;6283840;28;20744;-57
2022/03/01 14:20:25;;;;;;;7.70;7.00;;;8.90;1.00;;;;;;6278318;28;20233;-58
2022/03/01 14:23:29;;;;;;;7.97;7.37;;;8.90;1.00;;;;;;6284068;28;20400;-58
2022/03/01 14:26:33;;;;;;;8.57;7.20;;;9.00;1.00;;;;;;6308287;28;20466;-57
2022/03/01 14:29:36;;;;;;;8.03;7.53;;;9.00;1.00;;;;;;6301646;28;20233;-56
2022/03/01 14:32:39;;;;;;;7.50;6.90;;;8.90;1.00;;;;;;6277189;28;20234;-57
2022/03/01 14:35:41;;;;;;;7.20;6.73;;;8.90;1.00;;;;;;6275052;28;20246;-58
2022/03/01 14:38:46;;;;;;;7.90;7.23;;;8.70;1.00;;;;;;6278451;28;20264;-58
2022/03/01 14:41:48;;;;;;;8.17;7.57;;;8.60;1.00;;;;;;6278842;28;20316;-57
2022/03/01 14:44:51;;;;;;;7.73;7.13;;;8.60;1.00;;;;;;6283008;28;20514;-57
2022/03/01 14:47:54;;;;;;;7.10;6.60;;;8.60;1.00;;;;;;6278442;28;20726;-56
2022/03/01 14:50:57;;;;;;;8.53;7.83;;;8.50;1.00;;;;;;6285166;28;20398;-56
2022/03/01 14:54:01;;;;;;;8.23;7.53;;;8.40;1.00;;;;;;6277763;28;20475;-56
2022/03/01 14:57:04;;;;;;;8.23;7.63;;;8.30;1.00;;;;;;6282056;28;20221;-57
2022/03/01 15:00:10;;;;;;;8.70;7.90;;;8.20;1.00;;;;;;6274403;28;20737;-57
2022/03/01 15:03:13;;;;;;;7.57;7.07;;;8.20;1.00;;;;;;6279083;28;20328;-57
2022/03/01 15:06:17;;;;;;;7.90;7.30;;;8.20;1.00;;;;;;6279306;28;20237;-57
2022/03/01 15:09:21;;;;;;;8.07;7.43;;;8.00;1.00;;;;;;6293746;28;20229;-57
2022/03/01 15:12:24;;;;;;;7.83;7.23;;;7.90;1.00;;;;;;6307307;28;20310;-57
2022/03/01 15:15:26;;;;;;;7.40;7.00;;;7.80;1.00;;;;;;6304265;28;20950;-58
2022/03/01 15:18:30;;;;;;;8.00;7.40;;;7.80;1.00;;;;;;6300388;28;20228;-57
2022/03/01 15:21:33;;;;;;;8.17;7.37;;;7.70;1.00;;;;;;6306572;28;20389;-56
2022/03/01 15:24:37;;;;;;;7.53;6.93;;;7.60;1.00;;;;;;6306664;28;20254;-57
2022/03/01 15:27:41;;;;;;;8.23;7.63;;;7.60;1.00;;;;;;6306068;28;20936;-57
2022/03/01 15:30:44;;;;;;;7.97;7.20;;;7.50;1.00;;;;;;6306263;28;20270;-56
2022/03/01 15:33:47;;;;;;;7.83;7.30;;;7.40;1.00;;;;;;6301811;28;20749;-56
2022/03/01 15:36:50;;;;;;;7.57;7.10;;;7.30;1.00;;;;;;6302862;28;20233;-57
2022/03/01 15:39:54;;;;;;;7.60;7.03;;;7.50;1.00;;;;;;6301808;28;20307;-58
2022/03/01 15:42:58;;;;;;;8.40;7.70;;;7.10;1.00;;;;;;6298276;28;20241;-56
2022/03/01 15:46:01;;;;;;;8.10;7.50;;;7.00;1.00;;;;;;6303025;28;20319;-56
2022/03/01 15:49:04;;;;;;;8.10;7.40;;;7.00;1.00;;;;;;6306928;28;20316;-57
2022/03/01 15:52:08;;;;;;;9.00;8.20;;;6.90;1.00;;;;;;6301882;28;20334;-56
2022/03/01 15:55:14;;;;;;;7.53;7.03;;;7.20;1.00;;;;;;6306847;28;20371;-57
2022/03/01 15:58:17;;;;;;;7.77;7.07;;;7.00;1.00;;;;;;6304706;28;20341;-56
2022/03/01 16:01:20;;;;;;;9.53;7.90;;;6.90;1.00;;;;;;6304895;28;20235;-56